sensor_id;sensor_type;location;lat;lon;timestamp;P1;durP1;ratioP1;P2;durP2;ratioP2
64932;SDS011;51446;53.850;10.662;2022-07-19T00:06:37;7.95;;;5.85;;
64932;SDS011;51446;53.850;10.662;2022-07-19T00:09:03;8.57;;;5.87;;
64932;SDS011;51446;53.850;10.662;2022-07-19T00:11:29;10.15;;;5.80;;
64932;SDS011;51446;53.850;10.662;2022-07-19T00:13:54;8.33;;;6.00;;
64932;SDS011;51446;53.850;10.662;2022-07-19T00:16:19;8.13;;;5.60;;
64932;SDS011;51446;53.850;10.662;2022-07-19T00:18:45;8.60;;;5.43;;
64932;SDS011;51446;53.850;10.662;2022-07-19T00:21:10;7.97;;;5.53;;
64932;SDS011;51446;53.850;10.662;2022-07-19T00:23:35;7.53;;;5.73;;
64932;SDS011;51446;53.850;10.662;2022-07-19T00:26:01;7.07;;;5.60;;
64932;SDS011;51446;53.850;10.662;2022-07-19T00:28:27;7.07;;;5.50;;
64932;SDS011;51446;53.850;10.662;2022-07-19T00:30:53;10.48;;;5.75;;
64932;SDS011;51446;53.850;10.662;2022-07-19T00:33:18;8.20;;;5.30;;
64932;SDS011;51446;53.850;10.662;2022-07-19T00:35:44;6.97;;;5.17;;
64932;SDS011;51446;53.850;10.662;2022-07-19T00:38:11;9.25;;;5.43;;
64932;SDS011;51446;53.850;10.662;2022-07-19T00:40:38;9.30;;;5.40;;
64932;SDS011;51446;53.850;10.662;2022-07-19T00:43:06;8.15;;;6.10;;
64932;SDS011;51446;53.850;10.662;2022-07-19T00:45:32;7.55;;;5.90;;
64932;SDS011;51446;53.850;10.662;2022-07-19T00:47:57;9.63;;;6.70;;
64932;SDS011;51446;53.850;10.662;2022-07-19T00:50:22;9.53;;;6.40;;
64932;SDS011;51446;53.850;10.662;2022-07-19T00:52:49;8.40;;;6.28;;
64932;SDS011;51446;53.850;10.662;2022-07-19T00:55:19;11.50;;;7.18;;
64932;SDS011;51446;53.850;10.662;2022-07-19T00:57:45;8.57;;;6.30;;
64932;SDS011;51446;53.850;10.662;2022-07-19T01:00:11;9.97;;;5.90;;
64932;SDS011;51446;53.850;10.662;2022-07-19T01:02:37;8.57;;;6.30;;
64932;SDS011;51446;53.850;10.662;2022-07-19T01:05:03;8.20;;;6.27;;
64932;SDS011;51446;53.850;10.662;2022-07-19T01:07:30;9.45;;;6.40;;
64932;SDS011;51446;53.850;10.662;2022-07-19T01:09:55;9.10;;;6.30;;
64932;SDS011;51446;53.850;10.662;2022-07-19T01:12:21;8.52;;;6.43;;
64932;SDS011;51446;53.850;10.662;2022-07-19T01:14:55;8.65;;;6.32;;
64932;SDS011;51446;53.850;10.662;2022-07-19T01:17:21;7.27;;;5.77;;
64932;SDS011;51446;53.850;10.662;2022-07-19T01:19:46;9.70;;;6.47;;
64932;SDS011;51446;53.850;10.662;2022-07-19T01:22:12;9.67;;;6.77;;
64932;SDS011;51446;53.850;10.662;2022-07-19T01:24:37;10.20;;;6.10;;
64932;SDS011;51446;53.850;10.662;2022-07-19T01:27:02;7.67;;;6.43;;
64932;SDS011;51446;53.850;10.662;2022-07-19T01:29:27;8.90;;;6.70;;
64932;SDS011;51446;53.850;10.662;2022-07-19T01:31:52;8.50;;;6.77;;
64932;SDS011;51446;53.850;10.662;2022-07-19T01:34:18;9.27;;;6.17;;
64932;SDS011;51446;53.850;10.662;2022-07-19T01:36:43;10.67;;;5.90;;
64932;SDS011;51446;53.850;10.662;2022-07-19T01:39:08;11.47;;;6.07;;
64932;SDS011;51446;53.850;10.662;2022-07-19T01:41:33;8.80;;;6.00;;
64932;SDS011;51446;53.850;10.662;2022-07-19T01:43:59;7.90;;;6.07;;
64932;SDS011;51446;53.850;10.662;2022-07-19T01:46:24;8.77;;;5.93;;
64932;SDS011;51446;53.850;10.662;2022-07-19T01:48:50;8.50;;;6.30;;
64932;SDS011;51446;53.850;10.662;2022-07-19T01:51:15;7.97;;;6.23;;
64932;SDS011;51446;53.850;10.662;2022-07-19T01:53:40;8.30;;;6.10;;
64932;SDS011;51446;53.850;10.662;2022-07-19T01:56:05;7.47;;;6.07;;
64932;SDS011;51446;53.850;10.662;2022-07-19T01:58:31;8.80;;;6.50;;
64932;SDS011;51446;53.850;10.662;2022-07-19T02:00:56;9.77;;;6.83;;
64932;SDS011;51446;53.850;10.662;2022-07-19T02:03:22;9.07;;;6.40;;
64932;SDS011;51446;53.850;10.662;2022-07-19T02:05:47;8.33;;;6.17;;
64932;SDS011;51446;53.850;10.662;2022-07-19T02:08:12;9.87;;;6.27;;
64932;SDS011;51446;53.850;10.662;2022-07-19T02:10:38;8.60;;;5.70;;
64932;SDS011;51446;53.850;10.662;2022-07-19T02:13:03;11.67;;;6.73;;
64932;SDS011;51446;53.850;10.662;2022-07-19T02:15:28;8.27;;;6.43;;
64932;SDS011;51446;53.850;10.662;2022-07-19T02:17:53;9.73;;;6.47;;
64932;SDS011;51446;53.850;10.662;2022-07-19T02:20:19;9.67;;;6.70;;
64932;SDS011;51446;53.850;10.662;2022-07-19T02:22:44;9.30;;;6.70;;
64932;SDS011;51446;53.850;10.662;2022-07-19T02:25:10;10.33;;;6.60;;
64932;SDS011;51446;53.850;10.662;2022-07-19T02:27:35;8.50;;;6.55;;
64932;SDS011;51446;53.850;10.662;2022-07-19T02:30:01;12.93;;;6.70;;
64932;SDS011;51446;53.850;10.662;2022-07-19T02:32:27;9.40;;;6.63;;
64932;SDS011;51446;53.850;10.662;2022-07-19T02:34:53;8.60;;;6.07;;
64932;SDS011;51446;53.850;10.662;2022-07-19T02:37:18;11.97;;;6.90;;
64932;SDS011;51446;53.850;10.662;2022-07-19T02:39:44;8.83;;;6.50;;
64932;SDS011;51446;53.850;10.662;2022-07-19T02:42:09;9.17;;;6.47;;
64932;SDS011;51446;53.850;10.662;2022-07-19T02:44:34;8.97;;;5.87;;
64932;SDS011;51446;53.850;10.662;2022-07-19T02:46:59;8.00;;;6.00;;
64932;SDS011;51446;53.850;10.662;2022-07-19T02:49:25;7.60;;;5.97;;
64932;SDS011;51446;53.850;10.662;2022-07-19T02:51:50;9.13;;;5.77;;
64932;SDS011;51446;53.850;10.662;2022-07-19T02:54:15;7.03;;;5.60;;
64932;SDS011;51446;53.850;10.662;2022-07-19T02:56:40;8.17;;;6.07;;
64932;SDS011;51446;53.850;10.662;2022-07-19T02:59:06;8.43;;;5.60;;
64932;SDS011;51446;53.850;10.662;2022-07-19T03:01:31;7.83;;;6.00;;
64932;SDS011;51446;53.850;10.662;2022-07-19T03:03:57;7.50;;;5.60;;
64932;SDS011;51446;53.850;10.662;2022-07-19T03:06:23;8.85;;;5.72;;
64932;SDS011;51446;53.850;10.662;2022-07-19T03:08:48;8.03;;;6.23;;
64932;SDS011;51446;53.850;10.662;2022-07-19T03:11:14;10.13;;;5.73;;
64932;SDS011;51446;53.850;10.662;2022-07-19T03:13:39;7.03;;;5.33;;
64932;SDS011;51446;53.850;10.662;2022-07-19T03:16:05;8.60;;;5.70;;
64932;SDS011;51446;53.850;10.662;2022-07-19T03:18:30;7.63;;;5.70;;
64932;SDS011;51446;53.850;10.662;2022-07-19T03:20:55;7.53;;;5.63;;
64932;SDS011;51446;53.850;10.662;2022-07-19T03:23:23;7.73;;;6.00;;
64932;SDS011;51446;53.850;10.662;2022-07-19T03:25:50;7.07;;;5.40;;
64932;SDS011;51446;53.850;10.662;2022-07-19T03:28:15;7.87;;;5.70;;
64932;SDS011;51446;53.850;10.662;2022-07-19T03:30:40;7.40;;;5.40;;
64932;SDS011;51446;53.850;10.662;2022-07-19T03:33:05;7.37;;;5.53;;
64932;SDS011;51446;53.850;10.662;2022-07-19T03:35:31;7.83;;;5.40;;
64932;SDS011;51446;53.850;10.662;2022-07-19T03:37:56;7.30;;;5.60;;
64932;SDS011;51446;53.850;10.662;2022-07-19T03:40:21;10.55;;;5.72;;
64932;SDS011;51446;53.850;10.662;2022-07-19T03:42:47;10.23;;;6.23;;
64932;SDS011;51446;53.850;10.662;2022-07-19T03:45:12;9.67;;;5.47;;
64932;SDS011;51446;53.850;10.662;2022-07-19T03:47:37;9.03;;;5.40;;
64932;SDS011;51446;53.850;10.662;2022-07-19T03:50:03;8.30;;;5.50;;
64932;SDS011;51446;53.850;10.662;2022-07-19T03:52:28;8.13;;;5.43;;
64932;SDS011;51446;53.850;10.662;2022-07-19T03:54:54;7.20;;;5.23;;
64932;SDS011;51446;53.850;10.662;2022-07-19T03:57:19;9.03;;;5.60;;
64932;SDS011;51446;53.850;10.662;2022-07-19T03:59:44;8.90;;;5.47;;
64932;SDS011;51446;53.850;10.662;2022-07-19T04:02:10;9.17;;;5.63;;
64932;SDS011;51446;53.850;10.662;2022-07-19T04:04:35;10.93;;;6.30;;
64932;SDS011;51446;53.850;10.662;2022-07-19T04:07:00;7.47;;;6.03;;
64932;SDS011;51446;53.850;10.662;2022-07-19T04:09:26;10.67;;;6.20;;
64932;SDS011;51446;53.850;10.662;2022-07-19T04:11:51;8.83;;;6.00;;
64932;SDS011;51446;53.850;10.662;2022-07-19T04:14:16;8.33;;;6.30;;
64932;SDS011;51446;53.850;10.662;2022-07-19T04:16:42;10.93;;;6.40;;
64932;SDS011;51446;53.850;10.662;2022-07-19T04:19:07;8.17;;;6.20;;
64932;SDS011;51446;53.850;10.662;2022-07-19T04:21:32;10.63;;;6.27;;
64932;SDS011;51446;53.850;10.662;2022-07-19T04:23:57;7.30;;;5.50;;
64932;SDS011;51446;53.850;10.662;2022-07-19T04:26:23;7.40;;;5.67;;
64932;SDS011;51446;53.850;10.662;2022-07-19T04:28:48;9.47;;;6.10;;
64932;SDS011;51446;53.850;10.662;2022-07-19T04:31:13;9.17;;;6.30;;
64932;SDS011;51446;53.850;10.662;2022-07-19T04:33:39;8.02;;;5.55;;
64932;SDS011;51446;53.850;10.662;2022-07-19T04:36:05;8.73;;;5.55;;
64932;SDS011;51446;53.850;10.662;2022-07-19T04:38:30;7.27;;;6.03;;
64932;SDS011;51446;53.850;10.662;2022-07-19T04:40:55;10.33;;;5.87;;
64932;SDS011;51446;53.850;10.662;2022-07-19T04:43:21;7.57;;;5.53;;
64932;SDS011;51446;53.850;10.662;2022-07-19T04:45:46;8.20;;;5.80;;
64932;SDS011;51446;53.850;10.662;2022-07-19T04:48:11;9.20;;;5.63;;
64932;SDS011;51446;53.850;10.662;2022-07-19T04:50:38;7.40;;;5.47;;
64932;SDS011;51446;53.850;10.662;2022-07-19T04:53:03;7.87;;;5.47;;
64932;SDS011;51446;53.850;10.662;2022-07-19T04:55:29;8.50;;;5.23;;
64932;SDS011;51446;53.850;10.662;2022-07-19T04:57:54;8.07;;;5.70;;
64932;SDS011;51446;53.850;10.662;2022-07-19T05:00:19;8.43;;;5.40;;
64932;SDS011;51446;53.850;10.662;2022-07-19T05:02:45;8.63;;;5.90;;
64932;SDS011;51446;53.850;10.662;2022-07-19T05:05:10;8.93;;;6.03;;
64932;SDS011;51446;53.850;10.662;2022-07-19T05:07:36;8.32;;;6.13;;
64932;SDS011;51446;53.850;10.662;2022-07-19T05:10:01;7.60;;;6.10;;
64932;SDS011;51446;53.850;10.662;2022-07-19T05:12:27;8.60;;;6.00;;
64932;SDS011;51446;53.850;10.662;2022-07-19T05:14:52;7.47;;;5.63;;
64932;SDS011;51446;53.850;10.662;2022-07-19T05:17:17;7.47;;;5.90;;
64932;SDS011;51446;53.850;10.662;2022-07-19T05:19:43;9.33;;;6.53;;
64932;SDS011;51446;53.850;10.662;2022-07-19T05:22:08;8.30;;;6.00;;
64932;SDS011;51446;53.850;10.662;2022-07-19T05:24:33;9.50;;;6.33;;
64932;SDS011;51446;53.850;10.662;2022-07-19T05:26:59;10.90;;;6.43;;
64932;SDS011;51446;53.850;10.662;2022-07-19T05:29:24;10.47;;;6.13;;
64932;SDS011;51446;53.850;10.662;2022-07-19T05:31:49;13.05;;;7.10;;
64932;SDS011;51446;53.850;10.662;2022-07-19T05:34:15;10.47;;;6.13;;
64932;SDS011;51446;53.850;10.662;2022-07-19T05:36:40;10.57;;;6.47;;
64932;SDS011;51446;53.850;10.662;2022-07-19T05:39:05;9.80;;;6.53;;
64932;SDS011;51446;53.850;10.662;2022-07-19T05:41:31;16.37;;;6.90;;
64932;SDS011;51446;53.850;10.662;2022-07-19T05:43:56;12.03;;;6.23;;
64932;SDS011;51446;53.850;10.662;2022-07-19T05:46:22;11.67;;;6.77;;
64932;SDS011;51446;53.850;10.662;2022-07-19T05:48:47;8.03;;;6.33;;
64932;SDS011;51446;53.850;10.662;2022-07-19T05:51:12;10.00;;;6.60;;
64932;SDS011;51446;53.850;10.662;2022-07-19T05:53:38;16.50;;;7.23;;
64932;SDS011;51446;53.850;10.662;2022-07-19T05:56:04;14.73;;;7.40;;
64932;SDS011;51446;53.850;10.662;2022-07-19T05:58:30;12.57;;;6.97;;
64932;SDS011;51446;53.850;10.662;2022-07-19T06:00:55;15.13;;;6.20;;
64932;SDS011;51446;53.850;10.662;2022-07-19T06:03:39;10.85;;;6.45;;
64932;SDS011;51446;53.850;10.662;2022-07-19T06:06:05;19.53;;;7.67;;
64932;SDS011;51446;53.850;10.662;2022-07-19T06:08:30;12.63;;;6.70;;
64932;SDS011;51446;53.850;10.662;2022-07-19T06:10:55;14.33;;;6.77;;
64932;SDS011;51446;53.850;10.662;2022-07-19T06:13:21;10.40;;;6.13;;
64932;SDS011;51446;53.850;10.662;2022-07-19T06:15:46;10.47;;;6.43;;
64932;SDS011;51446;53.850;10.662;2022-07-19T06:18:11;14.13;;;6.77;;
64932;SDS011;51446;53.850;10.662;2022-07-19T06:20:36;35.13;;;18.87;;
64932;SDS011;51446;53.850;10.662;2022-07-19T06:23:02;11.17;;;7.70;;
64932;SDS011;51446;53.850;10.662;2022-07-19T06:25:27;10.20;;;5.93;;
64932;SDS011;51446;53.850;10.662;2022-07-19T06:27:53;12.23;;;6.70;;
64932;SDS011;51446;53.850;10.662;2022-07-19T06:30:18;8.83;;;5.73;;
64932;SDS011;51446;53.850;10.662;2022-07-19T06:32:43;9.67;;;5.73;;
64932;SDS011;51446;53.850;10.662;2022-07-19T06:35:09;10.03;;;6.37;;
64932;SDS011;51446;53.850;10.662;2022-07-19T06:37:34;8.03;;;5.57;;
64932;SDS011;51446;53.850;10.662;2022-07-19T06:39:59;12.13;;;8.27;;
64932;SDS011;51446;53.850;10.662;2022-07-19T06:42:24;10.53;;;6.03;;
64932;SDS011;51446;53.850;10.662;2022-07-19T06:44:50;12.70;;;5.97;;
64932;SDS011;51446;53.850;10.662;2022-07-19T06:47:15;12.00;;;5.80;;
64932;SDS011;51446;53.850;10.662;2022-07-19T06:49:40;10.30;;;6.23;;
64932;SDS011;51446;53.850;10.662;2022-07-19T06:52:06;8.48;;;5.78;;
64932;SDS011;51446;53.850;10.662;2022-07-19T06:54:31;6.80;;;5.23;;
64932;SDS011;51446;53.850;10.662;2022-07-19T06:56:56;8.57;;;5.20;;
64932;SDS011;51446;53.850;10.662;2022-07-19T06:59:21;8.83;;;5.10;;
64932;SDS011;51446;53.850;10.662;2022-07-19T07:01:47;10.77;;;5.23;;
64932;SDS011;51446;53.850;10.662;2022-07-19T07:04:13;11.35;;;5.03;;
64932;SDS011;51446;53.850;10.662;2022-07-19T07:06:38;12.50;;;5.07;;
64932;SDS011;51446;53.850;10.662;2022-07-19T07:09:03;7.37;;;4.63;;
64932;SDS011;51446;53.850;10.662;2022-07-19T07:11:29;12.47;;;5.07;;
64932;SDS011;51446;53.850;10.662;2022-07-19T07:13:55;8.77;;;4.80;;
64932;SDS011;51446;53.850;10.662;2022-07-19T07:16:20;7.00;;;5.00;;
64932;SDS011;51446;53.850;10.662;2022-07-19T07:18:46;10.95;;;4.90;;
64932;SDS011;51446;53.850;10.662;2022-07-19T07:21:11;12.50;;;4.70;;
64932;SDS011;51446;53.850;10.662;2022-07-19T07:23:36;8.27;;;4.67;;
64932;SDS011;51446;53.850;10.662;2022-07-19T07:26:02;8.17;;;4.70;;
64932;SDS011;51446;53.850;10.662;2022-07-19T07:28:30;8.35;;;4.63;;
64932;SDS011;51446;53.850;10.662;2022-07-19T07:30:55;6.97;;;4.53;;
64932;SDS011;51446;53.850;10.662;2022-07-19T07:33:20;10.73;;;4.50;;
64932;SDS011;51446;53.850;10.662;2022-07-19T07:35:46;10.35;;;4.60;;
64932;SDS011;51446;53.850;10.662;2022-07-19T07:38:11;8.33;;;4.63;;
64932;SDS011;51446;53.850;10.662;2022-07-19T07:40:37;8.33;;;4.27;;
64932;SDS011;51446;53.850;10.662;2022-07-19T07:43:02;9.27;;;4.40;;
64932;SDS011;51446;53.850;10.662;2022-07-19T07:45:28;8.87;;;3.80;;
64932;SDS011;51446;53.850;10.662;2022-07-19T07:47:54;7.07;;;4.00;;
64932;SDS011;51446;53.850;10.662;2022-07-19T07:50:20;5.33;;;3.60;;
64932;SDS011;51446;53.850;10.662;2022-07-19T07:52:45;7.03;;;4.00;;
64932;SDS011;51446;53.850;10.662;2022-07-19T07:55:10;7.10;;;4.07;;
64932;SDS011;51446;53.850;10.662;2022-07-19T07:57:35;6.97;;;3.83;;
64932;SDS011;51446;53.850;10.662;2022-07-19T08:00:01;5.33;;;3.60;;
64932;SDS011;51446;53.850;10.662;2022-07-19T08:02:26;10.63;;;3.70;;
64932;SDS011;51446;53.850;10.662;2022-07-19T08:04:52;9.87;;;3.80;;
64932;SDS011;51446;53.850;10.662;2022-07-19T08:07:17;7.03;;;3.80;;
64932;SDS011;51446;53.850;10.662;2022-07-19T08:09:42;5.83;;;3.40;;
64932;SDS011;51446;53.850;10.662;2022-07-19T08:12:07;5.57;;;3.10;;
64932;SDS011;51446;53.850;10.662;2022-07-19T08:14:33;4.10;;;3.20;;
64932;SDS011;51446;53.850;10.662;2022-07-19T08:16:58;8.37;;;3.03;;
64932;SDS011;51446;53.850;10.662;2022-07-19T08:19:23;5.37;;;2.87;;
64932;SDS011;51446;53.850;10.662;2022-07-19T08:21:49;4.47;;;3.20;;
64932;SDS011;51446;53.850;10.662;2022-07-19T08:24:14;7.57;;;3.33;;
64932;SDS011;51446;53.850;10.662;2022-07-19T08:26:40;5.27;;;3.00;;
64932;SDS011;51446;53.850;10.662;2022-07-19T08:29:05;5.83;;;3.50;;
64932;SDS011;51446;53.850;10.662;2022-07-19T08:31:30;5.33;;;3.43;;
64932;SDS011;51446;53.850;10.662;2022-07-19T08:33:56;5.37;;;3.03;;
64932;SDS011;51446;53.850;10.662;2022-07-19T08:36:21;9.97;;;3.50;;
64932;SDS011;51446;53.850;10.662;2022-07-19T08:38:46;6.65;;;3.30;;
64932;SDS011;51446;53.850;10.662;2022-07-19T08:41:11;5.13;;;3.23;;
64932;SDS011;51446;53.850;10.662;2022-07-19T08:43:39;5.27;;;3.60;;
64932;SDS011;51446;53.850;10.662;2022-07-19T08:46:05;5.00;;;3.28;;
64932;SDS011;51446;53.850;10.662;2022-07-19T08:48:34;6.35;;;3.53;;
64932;SDS011;51446;53.850;10.662;2022-07-19T08:51:01;4.00;;;3.03;;
64932;SDS011;51446;53.850;10.662;2022-07-19T08:53:30;6.13;;;3.33;;
64932;SDS011;51446;53.850;10.662;2022-07-19T08:55:56;10.85;;;3.08;;
64932;SDS011;51446;53.850;10.662;2022-07-19T08:58:22;5.22;;;3.30;;
64932;SDS011;51446;53.850;10.662;2022-07-19T09:00:47;5.60;;;3.07;;
64932;SDS011;51446;53.850;10.662;2022-07-19T09:03:12;5.33;;;3.13;;
64932;SDS011;51446;53.850;10.662;2022-07-19T09:05:38;6.20;;;3.13;;
64932;SDS011;51446;53.850;10.662;2022-07-19T09:08:13;8.33;;;3.10;;
64932;SDS011;51446;53.850;10.662;2022-07-19T09:10:44;3.83;;;2.95;;
64932;SDS011;51446;53.850;10.662;2022-07-19T09:13:33;4.70;;;3.00;;
64932;SDS011;51446;53.850;10.662;2022-07-19T09:15:59;5.20;;;3.03;;
64932;SDS011;51446;53.850;10.662;2022-07-19T09:20:52;6.35;;;3.10;;
64932;SDS011;51446;53.850;10.662;2022-07-19T09:23:19;5.95;;;3.10;;
64932;SDS011;51446;53.850;10.662;2022-07-19T09:25:46;5.37;;;3.03;;
64932;SDS011;51446;53.850;10.662;2022-07-19T09:28:14;4.68;;;2.95;;
64932;SDS011;51446;53.850;10.662;2022-07-19T09:30:41;7.60;;;2.78;;
64932;SDS011;51446;53.850;10.662;2022-07-19T09:33:09;5.22;;;2.88;;
64932;SDS011;51446;53.850;10.662;2022-07-19T09:35:37;4.30;;;2.80;;
64932;SDS011;51446;53.850;10.662;2022-07-19T09:41:14;10.65;;;3.28;;
64932;SDS011;51446;53.850;10.662;2022-07-19T09:43:48;6.70;;;2.90;;
64932;SDS011;51446;53.850;10.662;2022-07-19T09:49:14;12.63;;;3.30;;
64932;SDS011;51446;53.850;10.662;2022-07-19T09:51:47;4.97;;;2.58;;
64932;SDS011;51446;53.850;10.662;2022-07-19T09:54:15;4.55;;;2.78;;
64932;SDS011;51446;53.850;10.662;2022-07-19T09:56:42;4.55;;;2.63;;
64932;SDS011;51446;53.850;10.662;2022-07-19T09:59:08;5.35;;;2.80;;
64932;SDS011;51446;53.850;10.662;2022-07-19T10:01:34;6.67;;;2.57;;
64932;SDS011;51446;53.850;10.662;2022-07-19T10:04:02;7.88;;;2.80;;
64932;SDS011;51446;53.850;10.662;2022-07-19T10:06:38;6.28;;;2.95;;
64932;SDS011;51446;53.850;10.662;2022-07-19T10:09:05;4.85;;;2.70;;
64932;SDS011;51446;53.850;10.662;2022-07-19T10:11:32;4.18;;;2.72;;
64932;SDS011;51446;53.850;10.662;2022-07-19T10:13:58;7.47;;;2.60;;
64932;SDS011;51446;53.850;10.662;2022-07-19T10:16:26;3.80;;;2.60;;
64932;SDS011;51446;53.850;10.662;2022-07-19T10:19:10;3.95;;;2.78;;
64932;SDS011;51446;53.850;10.662;2022-07-19T10:21:37;4.38;;;2.50;;
64932;SDS011;51446;53.850;10.662;2022-07-19T10:24:03;5.97;;;2.70;;
64932;SDS011;51446;53.850;10.662;2022-07-19T10:31:40;3.75;;;2.35;;
64932;SDS011;51446;53.850;10.662;2022-07-19T10:34:08;5.55;;;2.60;;
64932;SDS011;51446;53.850;10.662;2022-07-19T10:36:45;3.75;;;2.47;;
64932;SDS011;51446;53.850;10.662;2022-07-19T10:44:30;5.53;;;2.45;;
64932;SDS011;51446;53.850;10.662;2022-07-19T10:46:56;4.68;;;2.50;;
64932;SDS011;51446;53.850;10.662;2022-07-19T10:49:40;3.03;;;2.40;;
64932;SDS011;51446;53.850;10.662;2022-07-19T11:05:58;4.10;;;2.30;;
64932;SDS011;51446;53.850;10.662;2022-07-19T11:11:13;2.70;;;2.00;;
64932;SDS011;51446;53.850;10.662;2022-07-19T11:13:40;2.95;;;2.17;;
64932;SDS011;51446;53.850;10.662;2022-07-19T11:16:08;3.22;;;1.92;;
64932;SDS011;51446;53.850;10.662;2022-07-19T11:18:34;3.37;;;2.10;;
64932;SDS011;51446;53.850;10.662;2022-07-19T11:21:00;7.67;;;2.20;;
64932;SDS011;51446;53.850;10.662;2022-07-19T11:23:30;3.55;;;2.10;;
64932;SDS011;51446;53.850;10.662;2022-07-19T11:26:12;5.47;;;1.85;;
64932;SDS011;51446;53.850;10.662;2022-07-19T11:28:41;3.42;;;2.00;;
64932;SDS011;51446;53.850;10.662;2022-07-19T11:31:14;4.20;;;2.00;;
64932;SDS011;51446;53.850;10.662;2022-07-19T11:33:44;3.70;;;1.87;;
64932;SDS011;51446;53.850;10.662;2022-07-19T11:36:11;4.35;;;2.00;;
64932;SDS011;51446;53.850;10.662;2022-07-19T11:41:02;4.40;;;2.03;;
64932;SDS011;51446;53.850;10.662;2022-07-19T11:43:27;4.60;;;2.00;;
64932;SDS011;51446;53.850;10.662;2022-07-19T11:45:54;8.60;;;2.15;;
64932;SDS011;51446;53.850;10.662;2022-07-19T11:48:23;3.33;;;2.20;;
64932;SDS011;51446;53.850;10.662;2022-07-19T11:50:56;3.22;;;2.20;;
64932;SDS011;51446;53.850;10.662;2022-07-19T11:53:26;4.85;;;1.50;;
64932;SDS011;51446;53.850;10.662;2022-07-19T11:55:51;4.17;;;1.80;;
64932;SDS011;51446;53.850;10.662;2022-07-19T11:58:16;2.27;;;1.80;;
64932;SDS011;51446;53.850;10.662;2022-07-19T12:00:42;3.83;;;1.70;;
64932;SDS011;51446;53.850;10.662;2022-07-19T12:03:12;3.47;;;1.60;;
64932;SDS011;51446;53.850;10.662;2022-07-19T12:05:39;3.30;;;2.00;;
64932;SDS011;51446;53.850;10.662;2022-07-19T12:08:05;3.17;;;1.90;;
64932;SDS011;51446;53.850;10.662;2022-07-19T12:13:06;4.53;;;1.80;;
64932;SDS011;51446;53.850;10.662;2022-07-19T12:15:52;2.67;;;1.77;;
64932;SDS011;51446;53.850;10.662;2022-07-19T12:18:20;2.33;;;2.03;;
64932;SDS011;51446;53.850;10.662;2022-07-19T12:21:14;4.63;;;1.90;;
64932;SDS011;51446;53.850;10.662;2022-07-19T12:26:32;5.43;;;2.13;;
64932;SDS011;51446;53.850;10.662;2022-07-19T12:28:58;3.70;;;2.00;;
64932;SDS011;51446;53.850;10.662;2022-07-19T12:31:23;3.23;;;2.00;;
64932;SDS011;51446;53.850;10.662;2022-07-19T12:33:57;2.30;;;1.87;;
64932;SDS011;51446;53.850;10.662;2022-07-19T12:36:34;3.30;;;2.05;;
64932;SDS011;51446;53.850;10.662;2022-07-19T12:39:00;2.53;;;2.03;;
64932;SDS011;51446;53.850;10.662;2022-07-19T12:41:26;3.87;;;2.40;;
64932;SDS011;51446;53.850;10.662;2022-07-19T12:43:51;4.13;;;2.33;;
64932;SDS011;51446;53.850;10.662;2022-07-19T12:46:16;3.63;;;2.20;;
64932;SDS011;51446;53.850;10.662;2022-07-19T12:48:41;4.67;;;2.30;;
64932;SDS011;51446;53.850;10.662;2022-07-19T12:51:07;3.20;;;2.13;;
64932;SDS011;51446;53.850;10.662;2022-07-19T12:53:32;5.70;;;2.13;;
64932;SDS011;51446;53.850;10.662;2022-07-19T12:55:57;6.00;;;2.30;;
64932;SDS011;51446;53.850;10.662;2022-07-19T12:58:23;3.10;;;1.93;;
64932;SDS011;51446;53.850;10.662;2022-07-19T13:01:06;3.53;;;2.40;;
64932;SDS011;51446;53.850;10.662;2022-07-19T13:03:33;2.33;;;1.97;;
64932;SDS011;51446;53.850;10.662;2022-07-19T13:05:59;3.92;;;2.08;;
64932;SDS011;51446;53.850;10.662;2022-07-19T13:08:24;4.63;;;2.20;;
64932;SDS011;51446;53.850;10.662;2022-07-19T13:10:50;3.38;;;2.38;;
64932;SDS011;51446;53.850;10.662;2022-07-19T13:13:16;3.23;;;2.20;;
64932;SDS011;51446;53.850;10.662;2022-07-19T13:15:41;2.70;;;2.10;;
64932;SDS011;51446;53.850;10.662;2022-07-19T13:18:06;3.42;;;2.47;;
64932;SDS011;51446;53.850;10.662;2022-07-19T13:20:32;4.97;;;2.00;;
64932;SDS011;51446;53.850;10.662;2022-07-19T13:22:57;2.80;;;1.87;;
64932;SDS011;51446;53.850;10.662;2022-07-19T13:25:22;5.00;;;1.70;;
64932;SDS011;51446;53.850;10.662;2022-07-19T13:27:47;3.17;;;1.63;;
64932;SDS011;51446;53.850;10.662;2022-07-19T13:30:13;3.33;;;2.00;;
64932;SDS011;51446;53.850;10.662;2022-07-19T13:32:39;3.40;;;1.60;;
64932;SDS011;51446;53.850;10.662;2022-07-19T13:35:05;2.73;;;1.80;;
64932;SDS011;51446;53.850;10.662;2022-07-19T13:37:30;3.05;;;1.70;;
64932;SDS011;51446;53.850;10.662;2022-07-19T13:39:56;1.80;;;1.20;;
64932;SDS011;51446;53.850;10.662;2022-07-19T13:42:21;5.50;;;1.67;;
64932;SDS011;51446;53.850;10.662;2022-07-19T13:44:46;3.97;;;1.48;;
64932;SDS011;51446;53.850;10.662;2022-07-19T13:47:12;3.33;;;1.13;;
64932;SDS011;51446;53.850;10.662;2022-07-19T13:49:37;4.03;;;1.30;;
64932;SDS011;51446;53.850;10.662;2022-07-19T13:52:03;2.33;;;1.23;;
64932;SDS011;51446;53.850;10.662;2022-07-19T13:54:28;5.03;;;1.30;;
64932;SDS011;51446;53.850;10.662;2022-07-19T13:56:53;4.53;;;1.40;;
64932;SDS011;51446;53.850;10.662;2022-07-19T13:59:19;2.27;;;1.20;;
64932;SDS011;51446;53.850;10.662;2022-07-19T14:01:45;2.40;;;1.03;;
64932;SDS011;51446;53.850;10.662;2022-07-19T14:04:11;3.63;;;1.52;;
64932;SDS011;51446;53.850;10.662;2022-07-19T14:06:36;4.27;;;1.60;;
64932;SDS011;51446;53.850;10.662;2022-07-19T14:09:01;3.33;;;1.93;;
64932;SDS011;51446;53.850;10.662;2022-07-19T14:11:26;4.27;;;1.70;;
64932;SDS011;51446;53.850;10.662;2022-07-19T14:13:52;5.90;;;1.60;;
64932;SDS011;51446;53.850;10.662;2022-07-19T14:16:17;3.57;;;2.13;;
64932;SDS011;51446;53.850;10.662;2022-07-19T14:18:42;4.53;;;2.60;;
64932;SDS011;51446;53.850;10.662;2022-07-19T14:21:08;5.22;;;2.97;;
64932;SDS011;51446;53.850;10.662;2022-07-19T14:23:33;11.27;;;3.10;;
64932;SDS011;51446;53.850;10.662;2022-07-19T14:25:58;5.17;;;2.70;;
64932;SDS011;51446;53.850;10.662;2022-07-19T14:28:24;3.53;;;2.57;;
64932;SDS011;51446;53.850;10.662;2022-07-19T14:30:49;4.33;;;2.60;;
64932;SDS011;51446;53.850;10.662;2022-07-19T14:33:15;3.97;;;2.50;;
64932;SDS011;51446;53.850;10.662;2022-07-19T14:35:40;7.73;;;3.30;;
64932;SDS011;51446;53.850;10.662;2022-07-19T14:38:05;4.83;;;3.00;;
64932;SDS011;51446;53.850;10.662;2022-07-19T14:40:30;6.57;;;3.00;;
64932;SDS011;51446;53.850;10.662;2022-07-19T14:42:56;6.97;;;3.20;;
64932;SDS011;51446;53.850;10.662;2022-07-19T14:45:21;6.60;;;3.10;;
64932;SDS011;51446;53.850;10.662;2022-07-19T14:47:47;9.83;;;3.23;;
64932;SDS011;51446;53.850;10.662;2022-07-19T14:50:12;5.32;;;3.38;;
64932;SDS011;51446;53.850;10.662;2022-07-19T14:52:39;5.13;;;3.03;;
64932;SDS011;51446;53.850;10.662;2022-07-19T14:55:08;6.32;;;3.25;;
64932;SDS011;51446;53.850;10.662;2022-07-19T14:57:35;7.95;;;2.90;;
64932;SDS011;51446;53.850;10.662;2022-07-19T15:00:00;6.67;;;3.17;;
64932;SDS011;51446;53.850;10.662;2022-07-19T15:02:26;4.83;;;2.90;;
64932;SDS011;51446;53.850;10.662;2022-07-19T15:04:51;6.77;;;3.10;;
64932;SDS011;51446;53.850;10.662;2022-07-19T15:07:16;6.23;;;3.13;;
64932;SDS011;51446;53.850;10.662;2022-07-19T15:09:42;6.07;;;3.10;;
64932;SDS011;51446;53.850;10.662;2022-07-19T15:12:07;5.40;;;3.17;;
64932;SDS011;51446;53.850;10.662;2022-07-19T15:14:32;7.70;;;3.30;;
64932;SDS011;51446;53.850;10.662;2022-07-19T15:16:59;5.60;;;3.08;;